Nieuw Amsterdam — PBWQ — position and weather

sailwx.info

Track history (hours):
 
Tides and Currents Weather Stations Pressure Air Temp Water Temp Dewpoint Dewpoint Depression Visibility Wind Speed Wind Dir Waves Ship Positions

Nieuw Amsterdam

Last reported at 2020-Jan-23 02:00 UTC. Time now 2020-Jan-25 06:06 UTC.
Position N 19°06' W 066°24'.

Length 285 m; draft 8 m.

Type: Passenger vessel. MMSI: 246648000.

Wind from 180 at 28 knots

Barometer 1015.8 mb
Air temperature 26.0 ° C
Visibility: greater than 27.0 NM
Water temperature 31.0 ° C

Date/timePositionNaut miles runAvg speedWind from/ knotsBaromVisibWave heightAir tempDewpointWater temp
2020-Jan-23 02:00N 19°06' W 066°24'202 9.0 180 / 281015.827.0 26.0 31.0
2020-Jan-22 03:38N 18°01' W 063°03'0 0.0
2020-Jan-21 23:56N 18°01' W 063°03'0 0.0
2020-Jan-21 20:14N 18°01' W 063°03'  
2020-Jan-19 01:00N 26°13' W 079°20'816.6
2020-Jan-19 00:31N 26°11' W 079°29'3513.9
2020-Jan-18 22:00N 26°05' W 080°07'0 0.2
2020-Jan-18 21:28N 26°05' W 080°07'0 0.0
2020-Jan-18 20:28N 26°05' W 080°07'0 0.0
2020-Jan-18 19:28N 26°05' W 080°07'0 0.0
2020-Jan-18 18:01N 26°05' W 080°07'0 0.0
2020-Jan-18 17:31N 26°05' W 080°07'0 0.0
2020-Jan-18 16:28N 26°05' W 080°07'0 0.0
2020-Jan-18 15:28N 26°05' W 080°07'0 0.0
2020-Jan-18 14:58N 26°05' W 080°07'0 0.0
2020-Jan-18 13:30N 26°05' W 080°07'29 9.7
2020-Jan-18 10:30N 26°11' W 079°35'816.9
2020-Jan-18 10:00N 26°12' W 079°26'58614.0
2020-Jan-16 16:00N 21°18' W 070°12'30417.1 110 / 201025.810.8 25.0 27.0
2020-Jan-15 22:13N 18°39' W 065°37'3917.4
2020-Jan-15 19:58N 18°17' W 065°02'714.5
2020-Jan-15 19:30N 18°19' W 064°56'1 0.7
2020-Jan-15 17:59N 18°20' W 064°55'0 0.0
2020-Jan-15 13:35N 18°20' W 064°55'0 0.0
2020-Jan-15 12:29N 18°20' W 064°55'0 0.0
2020-Jan-15 11:21N 18°20' W 064°55'10 5.5
2020-Jan-15 09:31N 18°19' W 065°06'1211.7
2020-Jan-15 08:30N 18°28' W 065°14'3710.5
2020-Jan-15 05:00N 18°35' W 065°52'1610.9
2020-Jan-15 03:30N 18°29' W 066°08'2 1.5
2020-Jan-15 02:29N 18°28' W 066°07'0 0.0
2020-Jan-15 01:29N 18°28' W 066°07'0 0.0
2020-Jan-14 23:59N 18°28' W 066°07'0 0.0
2020-Jan-14 21:29N 18°28' W 066°07'0 0.0
2020-Jan-14 20:59N 18°28' W 066°07'0 0.0
2020-Jan-14 19:26N 18°28' W 066°07'0 0.0
2020-Jan-14 18:29N 18°28' W 066°07'0 0.0
2020-Jan-14 17:59N 18°28' W 066°07'0 0.0
2020-Jan-14 17:26N 18°28' W 066°07'0 0.0
2020-Jan-14 16:59N 18°28' W 066°07'  
Track history (hours):
 
Tides and Currents Weather Stations Pressure Air Temp Water Temp Dewpoint Dewpoint Depression Visibility Wind Speed Wind Dir Waves Ship Positions

Nieuw Amsterdam

Last reported at 2020-Jan-23 02:00 UTC. Time now 2020-Jan-25 06:06 UTC.
Position N 19°06' W 066°24'.

Length 285 m; draft 8 m.

Type: Passenger vessel. MMSI: 246648000.

Wind from 180 at 28 knots

Barometer 1015.8 mb
Air temperature 26.0 ° C
Visibility: greater than 27.0 NM
Water temperature 31.0 ° C

Date/timePositionNaut miles runAvg speedWind from/ knotsBaromVisibWave heightAir tempDewpointWater temp
2020-Jan-23 02:00N 19°06' W 066°24'202 9.0 180 / 281015.827.0 26.0 31.0
2020-Jan-22 03:38N 18°01' W 063°03'0 0.0
2020-Jan-21 23:56N 18°01' W 063°03'0 0.0
2020-Jan-21 20:14N 18°01' W 063°03'  
2020-Jan-19 01:00N 26°13' W 079°20'816.6
2020-Jan-19 00:31N 26°11' W 079°29'3513.9
2020-Jan-18 22:00N 26°05' W 080°07'0 0.2
2020-Jan-18 21:28N 26°05' W 080°07'0 0.0
2020-Jan-18 20:28N 26°05' W 080°07'0 0.0
2020-Jan-18 19:28N 26°05' W 080°07'0 0.0
2020-Jan-18 18:01N 26°05' W 080°07'0 0.0
2020-Jan-18 17:31N 26°05' W 080°07'0 0.0
2020-Jan-18 16:28N 26°05' W 080°07'0 0.0
2020-Jan-18 15:28N 26°05' W 080°07'0 0.0
2020-Jan-18 14:58N 26°05' W 080°07'0 0.0
2020-Jan-18 13:30N 26°05' W 080°07'29 9.7
2020-Jan-18 10:30N 26°11' W 079°35'816.9
2020-Jan-18 10:00N 26°12' W 079°26'58614.0
2020-Jan-16 16:00N 21°18' W 070°12'30417.1 110 / 201025.810.8 25.0 27.0
2020-Jan-15 22:13N 18°39' W 065°37'3917.4
2020-Jan-15 19:58N 18°17' W 065°02'714.5
2020-Jan-15 19:30N 18°19' W 064°56'1 0.7
2020-Jan-15 17:59N 18°20' W 064°55'0 0.0
2020-Jan-15 13:35N 18°20' W 064°55'0 0.0
2020-Jan-15 12:29N 18°20' W 064°55'0 0.0
2020-Jan-15 11:21N 18°20' W 064°55'10 5.5
2020-Jan-15 09:31N 18°19' W 065°06'1211.7
2020-Jan-15 08:30N 18°28' W 065°14'3710.5
2020-Jan-15 05:00N 18°35' W 065°52'1610.9
2020-Jan-15 03:30N 18°29' W 066°08'2 1.5
2020-Jan-15 02:29N 18°28' W 066°07'0 0.0
2020-Jan-15 01:29N 18°28' W 066°07'0 0.0
2020-Jan-14 23:59N 18°28' W 066°07'0 0.0
2020-Jan-14 21:29N 18°28' W 066°07'0 0.0
2020-Jan-14 20:59N 18°28' W 066°07'0 0.0
2020-Jan-14 19:26N 18°28' W 066°07'0 0.0
2020-Jan-14 18:29N 18°28' W 066°07'0 0.0
2020-Jan-14 17:59N 18°28' W 066°07'0 0.0
2020-Jan-14 17:26N 18°28' W 066°07'0 0.0
2020-Jan-14 16:59N 18°28' W 066°07'  

Dump ship's entire track history